createdAt,value
2023-02-11T00:00:30.041Z,27.37
2023-02-11T00:02:33.169Z,29.03
2023-02-11T00:04:35.219Z,26.57
2023-02-11T00:06:36.898Z,26.50
2023-02-11T00:08:39.408Z,29.00
2023-02-11T00:10:40.948Z,29.83
2023-02-11T00:12:43.255Z,31.03
2023-02-11T00:14:44.923Z,32.03
2023-02-11T00:16:46.671Z,31.47
2023-02-11T00:18:49.003Z,30.57
2023-02-11T00:20:50.611Z,32.00
2023-02-11T00:22:53.088Z,33.27
2023-02-11T00:24:54.868Z,32.23
2023-02-11T00:26:56.427Z,31.50
2023-02-11T00:28:59.212Z,30.23
2023-02-11T00:31:03.330Z,30.17
2023-02-11T00:33:04.995Z,28.17
2023-02-11T00:35:07.542Z,30.57
2023-02-11T00:37:09.193Z,29.30
2023-02-11T00:39:11.671Z,29.73
2023-02-11T00:41:19.555Z,30.97
2023-02-11T00:43:21.207Z,29.53
2023-02-11T00:45:25.130Z,31.13
2023-02-11T00:47:26.660Z,29.53
2023-02-11T00:49:31.365Z,30.87
2023-02-11T00:51:33.205Z,32.20
2023-02-11T00:53:35.863Z,29.20
2023-02-11T00:55:37.449Z,30.23
2023-02-11T00:57:42.178Z,32.43
2023-02-11T00:59:43.924Z,37.20
2023-02-11T01:01:48.343Z,35.97
2023-02-11T01:03:50.435Z,36.57
2023-02-11T01:05:52.536Z,33.47
2023-02-11T01:07:54.271Z,32.07
2023-02-11T01:09:57.067Z,31.87
2023-02-11T01:11:58.839Z,31.27
2023-02-11T01:14:01.031Z,30.23
2023-02-11T01:16:04.044Z,30.83
2023-02-11T01:18:06.187Z,29.13
2023-02-11T01:20:13.880Z,29.17
2023-02-11T01:22:15.420Z,29.90
2023-02-11T01:24:16.994Z,29.40
2023-02-11T01:26:19.191Z,29.27
2023-02-11T01:28:24.813Z,28.03
2023-02-11T01:30:27.004Z,29.30
2023-02-11T01:32:28.776Z,29.73
2023-02-11T01:34:30.290Z,28.47
2023-02-11T01:36:31.888Z,30.53
2023-02-11T01:38:35.780Z,29.87
2023-02-11T01:40:37.840Z,29.63
2023-02-11T01:42:39.501Z,29.67
2023-02-11T01:44:41.027Z,27.93
2023-02-11T01:46:43.904Z,28.03
2023-02-11T01:48:50.450Z,28.43
2023-02-11T01:50:57.256Z,29.57
2023-02-11T01:53:18.987Z,30.00
2023-02-11T01:55:39.953Z,29.33
2023-02-11T01:57:45.148Z,29.43
2023-02-11T02:00:08.902Z,30.50
2023-02-11T02:02:21.402Z,28.73
2023-02-11T02:04:27.371Z,29.13
2023-02-11T02:06:40.911Z,30.20
2023-02-11T02:09:01.889Z,27.77
2023-02-11T02:11:04.897Z,28.43
2023-02-11T02:13:06.509Z,27.97
2023-02-11T02:15:18.086Z,28.67
2023-02-11T02:17:38.434Z,25.77
2023-02-11T02:20:16.535Z,26.90
2023-02-11T02:22:43.603Z,26.83
2023-02-11T02:25:23.026Z,26.57
2023-02-11T02:27:49.556Z,27.77
2023-02-11T02:30:09.197Z,25.67
2023-02-11T02:32:22.505Z,24.47
2023-02-11T02:34:36.572Z,28.60
2023-02-11T02:36:47.876Z,27.17
2023-02-11T02:38:55.154Z,26.30
2023-02-11T02:41:09.750Z,26.80
2023-02-11T02:43:12.715Z,26.90
2023-02-11T02:45:15.012Z,25.70
2023-02-11T02:47:25.235Z,25.10
2023-02-11T02:49:26.790Z,25.83
2023-02-11T02:52:06.245Z,27.67
2023-02-11T02:54:35.955Z,25.50
2023-02-11T02:56:49.696Z,25.20
2023-02-11T02:59:10.960Z,26.03
2023-02-11T03:01:34.408Z,26.30
2023-02-11T03:03:46.671Z,26.33
2023-02-11T03:06:03.450Z,24.57
2023-02-11T03:08:16.801Z,24.83
2023-02-11T03:10:35.653Z,25.60
2023-02-11T03:12:38.602Z,25.10
2023-02-11T03:14:41.956Z,25.07
2023-02-11T03:16:45.521Z,25.27
2023-02-11T03:18:59.320Z,25.47
2023-02-11T03:21:05.639Z,25.07
2023-02-11T03:23:30.821Z,23.33
2023-02-11T03:25:38.165Z,24.60
2023-02-11T03:27:47.112Z,25.60
2023-02-11T03:29:59.019Z,25.40
2023-02-11T03:32:16.260Z,24.90
2023-02-11T03:34:45.247Z,23.93
2023-02-11T03:36:56.108Z,24.30
2023-02-11T03:39:00.261Z,23.00
2023-02-11T03:41:05.280Z,24.00
2023-02-11T03:43:17.295Z,25.90
2023-02-11T03:45:26.540Z,24.87
2023-02-11T03:47:35.233Z,24.47
2023-02-11T03:49:39.798Z,24.63
2023-02-11T03:51:41.821Z,24.10
2023-02-11T03:53:46.433Z,24.53
2023-02-11T03:55:51.774Z,26.27
2023-02-11T03:57:53.758Z,25.20
2023-02-11T03:59:58.231Z,24.33
2023-02-11T04:01:59.799Z,23.73
2023-02-11T04:04:10.237Z,23.47
2023-02-11T04:06:11.906Z,23.20
2023-02-11T04:08:13.420Z,24.63
2023-02-11T04:10:15.301Z,22.87
2023-02-11T04:12:16.892Z,25.07
2023-02-11T04:14:20.885Z,22.67
2023-02-11T04:16:28.604Z,22.03
2023-02-11T04:18:30.158Z,25.67
2023-02-11T04:20:31.707Z,24.20
2023-02-11T04:22:33.248Z,22.33
2023-02-11T04:24:35.279Z,22.97
2023-02-11T04:26:36.894Z,23.47
2023-02-11T04:28:38.467Z,23.13
2023-02-11T04:30:41.242Z,22.53
2023-02-11T04:32:42.933Z,21.43
2023-02-11T04:34:44.643Z,21.97
2023-02-11T04:36:49.204Z,20.50
2023-02-11T04:38:50.789Z,20.97
2023-02-11T04:40:52.442Z,20.53
2023-02-11T04:42:54.142Z,20.23
2023-02-11T04:44:58.080Z,18.43
2023-02-11T04:46:59.774Z,18.93
2023-02-11T04:49:01.328Z,18.03
2023-02-11T04:51:03.194Z,18.90
2023-02-11T04:53:04.696Z,18.43
2023-02-11T04:55:06.793Z,17.00
2023-02-11T04:57:08.408Z,17.17
2023-02-11T04:59:09.987Z,18.20
2023-02-11T05:01:15.107Z,17.97
2023-02-11T05:03:17.333Z,18.07
2023-02-11T05:05:19.018Z,18.30
2023-02-11T05:07:20.674Z,19.27
2023-02-11T05:09:22.818Z,20.63
2023-02-11T05:11:26.062Z,20.40
2023-02-11T05:13:29.134Z,21.20
2023-02-11T05:15:37.019Z,20.70
2023-02-11T05:17:38.637Z,20.23
2023-02-11T05:19:41.688Z,20.53
2023-02-11T05:21:56.642Z,20.17
2023-02-11T05:24:06.634Z,19.70
2023-02-11T05:26:08.906Z,19.10
2023-02-11T05:28:10.447Z,19.07
2023-02-11T05:30:12.314Z,17.80
2023-02-11T05:32:14.707Z,17.53
2023-02-11T05:34:16.241Z,16.30
2023-02-11T05:36:17.994Z,15.87
2023-02-11T05:38:19.762Z,16.00
2023-02-11T05:40:21.415Z,15.83
2023-02-11T05:42:23.037Z,14.70
2023-02-11T05:44:25.703Z,14.93
2023-02-11T05:46:27.403Z,13.00
2023-02-11T05:48:28.932Z,14.03
2023-02-11T05:50:33.673Z,13.53
2023-02-11T05:52:35.169Z,12.83
2023-02-11T05:54:36.926Z,13.50
2023-02-11T05:56:38.605Z,12.03
2023-02-11T05:58:40.356Z,12.07
2023-02-11T06:00:42.111Z,12.43
2023-02-11T06:02:46.678Z,12.90
2023-02-11T06:04:48.201Z,12.93
2023-02-11T06:06:49.945Z,12.63
2023-02-11T06:08:51.541Z,13.80
2023-02-11T06:10:53.226Z,12.17
2023-02-11T06:12:54.889Z,13.40
2023-02-11T06:14:56.433Z,13.73
2023-02-11T06:16:58.100Z,13.40
2023-02-11T06:19:08.659Z,12.83
2023-02-11T06:21:16.664Z,12.77
2023-02-11T06:23:18.387Z,13.00
2023-02-11T06:25:20.052Z,13.07
2023-02-11T06:27:21.733Z,14.10
2023-02-11T06:29:23.416Z,12.47
2023-02-11T06:31:25.047Z,12.87
2023-02-11T06:33:26.613Z,13.07
2023-02-11T06:35:28.492Z,14.27
2023-02-11T06:37:30.254Z,15.63
2023-02-11T06:39:32.232Z,16.43
2023-02-11T06:41:36.050Z,19.17
2023-02-11T06:43:37.617Z,18.57
2023-02-11T06:45:41.165Z,19.63
2023-02-11T06:47:43.018Z,19.17
2023-02-11T06:49:51.788Z,17.43
2023-02-11T06:51:54.158Z,18.93
2023-02-11T06:53:55.826Z,21.43
2023-02-11T06:56:02.620Z,24.90
2023-02-11T06:58:04.323Z,25.73
2023-02-11T07:00:06.479Z,26.40
2023-02-11T07:02:10.153Z,28.57
2023-02-11T07:04:11.706Z,25.00
2023-02-11T07:06:16.589Z,23.93
2023-02-11T07:08:18.545Z,21.50
2023-02-11T07:10:20.426Z,21.50
2023-02-11T07:12:22.245Z,21.17
2023-02-11T07:14:34.310Z,20.17
2023-02-11T07:16:36.513Z,20.47
2023-02-11T07:18:38.449Z,20.53
2023-02-11T07:20:39.974Z,20.33
2023-02-11T07:22:41.624Z,19.50
2023-02-11T07:24:43.197Z,20.30
2023-02-11T07:26:44.932Z,18.87
2023-02-11T07:28:46.955Z,19.37
2023-02-11T07:30:48.643Z,19.13
2023-02-11T07:32:50.477Z,18.27
2023-02-11T07:34:52.158Z,18.77
2023-02-11T07:36:56.179Z,18.67
2023-02-11T07:38:58.631Z,18.30
2023-02-11T07:41:05.159Z,18.70
2023-02-11T07:43:06.874Z,18.93
2023-02-11T07:45:08.804Z,18.53
2023-02-11T07:47:13.842Z,18.43
2023-02-11T07:49:16.537Z,17.57
2023-02-11T07:51:26.964Z,19.80
2023-02-11T07:53:28.769Z,19.13
2023-02-11T07:55:30.407Z,20.90
2023-02-11T07:57:37.570Z,18.50
2023-02-11T07:59:39.091Z,19.50
2023-02-11T08:01:41.952Z,19.10
2023-02-11T08:03:43.710Z,19.17
2023-02-11T08:05:45.387Z,20.77
2023-02-11T08:07:47.258Z,20.27
2023-02-11T08:09:48.893Z,19.00
2023-02-11T08:11:50.548Z,20.37
2023-02-11T08:13:52.900Z,18.40
2023-02-11T08:15:57.822Z,18.23
2023-02-11T08:17:59.547Z,18.43
2023-02-11T08:20:04.781Z,18.10
2023-02-11T08:22:06.348Z,17.03
2023-02-11T08:24:09.080Z,17.93
2023-02-11T08:26:21.890Z,17.33
2023-02-11T08:28:23.867Z,16.50
2023-02-11T08:30:27.472Z,17.23
2023-02-11T08:32:29.107Z,17.73
2023-02-11T08:34:31.118Z,16.63
2023-02-11T08:36:36.667Z,15.30
2023-02-11T08:38:39.267Z,15.33
2023-02-11T08:40:42.096Z,15.40
2023-02-11T08:42:43.655Z,14.73
2023-02-11T08:44:47.533Z,13.17
2023-02-11T08:46:50.708Z,12.97
2023-02-11T08:48:54.966Z,12.53
2023-02-11T08:50:57.071Z,12.60
2023-02-11T08:53:01.224Z,12.47
2023-02-11T08:55:02.984Z,12.90
2023-02-11T08:57:05.509Z,12.90
2023-02-11T08:59:09.239Z,12.33
2023-02-11T09:01:22.322Z,11.53
2023-02-11T09:03:24.536Z,12.90
2023-02-11T09:05:27.570Z,12.87
2023-02-11T09:07:29.151Z,13.07
2023-02-11T09:09:30.750Z,11.57
2023-02-11T09:11:35.834Z,11.93
2023-02-11T09:13:37.837Z,11.93
2023-02-11T09:15:39.568Z,11.27
2023-02-11T09:17:41.088Z,10.70
2023-02-11T09:19:42.778Z,10.73
2023-02-11T09:21:44.461Z,10.30
2023-02-11T09:23:47.963Z,9.75
2023-02-11T09:25:49.749Z,10.00
2023-02-11T09:27:52.323Z,10.57
2023-02-11T09:29:54.060Z,11.25
2023-02-11T09:31:55.710Z,10.02
2023-02-11T09:34:02.005Z,9.90
2023-02-11T09:36:05.994Z,10.05
2023-02-11T09:38:07.612Z,9.20
2023-02-11T09:40:10.138Z,9.75
2023-02-11T09:42:41.055Z,10.10
2023-02-11T09:44:46.226Z,10.38
2023-02-11T09:46:54.838Z,10.50
2023-02-11T09:48:56.761Z,10.18
2023-02-11T09:51:03.389Z,10.05
2023-02-11T09:53:05.148Z,11.13
2023-02-11T09:55:18.809Z,10.93
2023-02-11T09:57:28.553Z,10.65
2023-02-11T09:59:30.761Z,9.98
2023-02-11T10:01:50.591Z,10.27
2023-02-11T10:04:13.787Z,9.57
2023-02-11T10:06:55.404Z,10.40
2023-02-11T10:09:08.587Z,9.70
2023-02-11T10:11:54.895Z,10.38
2023-02-11T10:14:05.586Z,9.05
2023-02-11T10:16:24.347Z,9.52
2023-02-11T10:18:53.830Z,9.93
2023-02-11T10:21:12.502Z,9.52
2023-02-11T10:23:22.412Z,9.55
2023-02-11T10:25:34.849Z,10.73
2023-02-11T10:27:36.308Z,10.10
2023-02-11T10:29:47.042Z,10.65
2023-02-11T10:31:53.380Z,10.48
2023-02-11T10:34:05.172Z,10.15
2023-02-11T10:36:14.377Z,12.07
2023-02-11T10:38:18.901Z,10.93
2023-02-11T10:40:25.926Z,11.43
2023-02-11T10:42:29.696Z,11.07
2023-02-11T10:44:41.592Z,12.13
2023-02-11T10:46:43.500Z,14.15
2023-02-11T10:48:58.765Z,15.50
2023-02-11T10:51:14.605Z,15.02
2023-02-11T10:53:20.672Z,14.38
2023-02-11T10:55:27.852Z,12.88
2023-02-11T10:57:38.843Z,13.02
2023-02-11T10:59:42.619Z,13.70
2023-02-11T11:01:53.380Z,12.32
2023-02-11T11:03:58.815Z,11.77
2023-02-11T11:06:09.204Z,11.57
2023-02-11T11:08:14.316Z,11.57
2023-02-11T11:10:34.430Z,12.13
2023-02-11T11:12:42.074Z,11.40
2023-02-11T11:14:54.850Z,10.73
2023-02-11T11:16:56.590Z,12.25
2023-02-11T11:19:07.727Z,12.27
2023-02-11T11:21:27.720Z,11.98
2023-02-11T11:23:30.895Z,11.68
2023-02-11T11:25:32.435Z,11.75
2023-02-11T11:27:34.189Z,11.23
2023-02-11T11:29:46.021Z,12.15
2023-02-11T11:32:03.137Z,11.98
2023-02-11T11:34:22.160Z,11.75
2023-02-11T11:36:34.225Z,11.50
2023-02-11T11:38:42.806Z,10.70
2023-02-11T11:40:44.558Z,10.85
2023-02-11T11:42:46.166Z,11.50
2023-02-11T11:45:19.635Z,9.90
2023-02-11T11:47:29.612Z,10.75
2023-02-11T11:49:38.782Z,10.55
2023-02-11T11:51:44.923Z,11.27
2023-02-11T11:53:57.131Z,11.25
2023-02-11T11:56:11.427Z,10.70
2023-02-11T11:58:22.640Z,12.60
2023-02-11T12:00:33.711Z,11.82
2023-02-11T12:03:17.163Z,11.98
2023-02-11T12:05:32.291Z,11.18
2023-02-11T12:08:26.683Z,10.93
2023-02-11T12:11:08.778Z,10.30
2023-02-11T12:13:23.304Z,13.10
2023-02-11T12:15:43.513Z,11.50
2023-02-11T12:17:56.501Z,11.68
2023-02-11T12:20:26.349Z,11.25
2023-02-11T12:23:15.064Z,11.43
2023-02-11T12:25:30.908Z,10.93
2023-02-11T12:27:57.230Z,12.57
2023-02-11T12:30:20.966Z,11.75
2023-02-11T12:32:47.116Z,11.23
2023-02-11T12:34:51.542Z,12.18
2023-02-11T12:37:02.563Z,11.20
2023-02-11T12:39:17.515Z,11.10
2023-02-11T12:42:08.683Z,11.48
2023-02-11T12:44:21.838Z,11.38
2023-02-11T12:46:29.166Z,12.30
2023-02-11T12:48:43.372Z,13.30
2023-02-11T12:51:14.597Z,12.38
2023-02-11T12:53:28.009Z,12.85
2023-02-11T12:55:42.576Z,11.70
2023-02-11T12:57:46.495Z,11.63
2023-02-11T13:00:04.972Z,10.98
2023-02-11T13:02:51.236Z,12.18
2023-02-11T13:04:57.324Z,12.05
2023-02-11T13:07:05.523Z,11.63
2023-02-11T13:09:18.817Z,12.35
2023-02-11T13:11:24.436Z,11.50
2023-02-11T13:13:31.819Z,12.00
2023-02-11T13:15:33.574Z,12.70
2023-02-11T13:17:43.931Z,12.15
2023-02-11T13:19:53.231Z,11.35
2023-02-11T13:22:21.133Z,12.13
2023-02-11T13:24:35.937Z,11.80
2023-02-11T13:26:49.955Z,11.40
2023-02-11T13:29:13.032Z,11.70
2023-02-11T13:31:16.686Z,11.02
2023-02-11T13:33:30.944Z,11.52
2023-02-11T13:35:33.518Z,12.25
2023-02-11T13:37:38.648Z,11.05
2023-02-11T13:39:40.397Z,10.98
2023-02-11T13:41:42.359Z,12.10
2023-02-11T13:43:44.402Z,12.30
2023-02-11T13:45:51.655Z,11.68
2023-02-11T13:48:03.958Z,11.70
2023-02-11T13:50:08.208Z,11.63
2023-02-11T13:52:39.847Z,12.48
2023-02-11T13:54:46.925Z,10.63
2023-02-11T13:57:20.048Z,12.75
2023-02-11T13:59:24.841Z,11.65
2023-02-11T14:02:44.057Z,12.00
2023-02-11T14:05:22.657Z,11.25
2023-02-11T14:07:51.901Z,11.30
2023-02-11T14:09:57.045Z,12.70
2023-02-11T14:12:33.038Z,12.32
2023-02-11T14:14:59.258Z,11.13
2023-02-11T14:17:09.505Z,12.25
2023-02-11T14:19:11.225Z,10.13
2023-02-11T14:21:23.178Z,11.57
2023-02-11T14:23:28.455Z,11.13
2023-02-11T14:25:30.237Z,11.43
2023-02-11T14:27:42.216Z,11.18
2023-02-11T14:29:58.754Z,11.25
2023-02-11T14:32:06.088Z,10.63
2023-02-11T14:34:45.035Z,10.95
2023-02-11T14:37:11.343Z,10.10
2023-02-11T14:39:18.791Z,11.23
2023-02-11T14:41:25.750Z,11.43
2023-02-11T14:43:40.537Z,11.65
2023-02-11T14:45:50.781Z,11.32
2023-02-11T14:48:03.582Z,11.68
2023-02-11T14:50:08.396Z,11.82
2023-02-11T14:52:24.388Z,11.10
2023-02-11T14:54:28.089Z,11.02
2023-02-11T14:56:36.795Z,12.38
2023-02-11T14:58:47.337Z,11.95
2023-02-11T15:00:57.116Z,11.68
2023-02-11T15:02:58.747Z,11.90
2023-02-11T15:05:17.454Z,10.65
2023-02-11T15:07:19.133Z,11.27
2023-02-11T15:09:42.432Z,11.15
2023-02-11T15:11:51.434Z,11.15
2023-02-11T15:13:55.434Z,10.63
2023-02-11T15:16:12.205Z,11.35
2023-02-11T15:18:26.845Z,11.77
2023-02-11T15:20:31.934Z,12.63
2023-02-11T15:22:36.844Z,12.18
2023-02-11T15:24:40.091Z,12.50
2023-02-11T15:26:41.744Z,11.68
2023-02-11T15:28:52.237Z,13.32
2023-02-11T15:31:03.327Z,11.02
2023-02-11T15:33:06.911Z,11.85
2023-02-11T15:35:11.804Z,11.48
2023-02-11T15:37:35.127Z,11.02
2023-02-11T15:39:41.998Z,11.93
2023-02-11T15:41:44.466Z,11.30
2023-02-11T15:43:54.243Z,10.63
2023-02-11T15:46:01.629Z,12.55
2023-02-11T15:48:21.736Z,12.35
2023-02-11T15:50:30.236Z,12.50
2023-02-11T15:52:32.231Z,11.98
2023-02-11T15:54:34.133Z,13.43
2023-02-11T15:56:43.262Z,12.75
2023-02-11T15:58:50.432Z,12.63
2023-02-11T16:00:59.865Z,14.05
2023-02-11T16:03:01.531Z,13.27
2023-02-11T16:05:09.660Z,13.27
2023-02-11T16:07:40.399Z,14.30
2023-02-11T16:09:43.005Z,13.57
2023-02-11T16:11:47.366Z,14.57
2023-02-11T16:13:49.246Z,14.38
2023-02-11T16:15:54.664Z,14.02
2023-02-11T16:17:56.807Z,13.95
2023-02-11T16:20:01.625Z,14.25
2023-02-11T16:22:10.384Z,14.35
2023-02-11T16:24:29.234Z,14.98
2023-02-11T16:26:57.750Z,16.05
2023-02-11T16:31:45.709Z,16.00
2023-02-11T16:34:35.742Z,15.88
2023-02-11T16:37:13.045Z,15.07
2023-02-11T16:40:03.150Z,14.32
2023-02-11T16:43:26.254Z,13.55
2023-02-11T16:45:31.165Z,15.07
2023-02-11T16:47:34.464Z,14.90
2023-02-11T16:49:38.305Z,14.95
2023-02-11T16:51:41.412Z,14.75
2023-02-11T16:53:43.174Z,17.73
2023-02-11T16:55:44.839Z,15.80
2023-02-11T16:57:46.542Z,15.48
2023-02-11T16:59:48.886Z,14.43
2023-02-11T17:01:52.980Z,14.68
2023-02-11T17:03:54.721Z,14.43
2023-02-11T17:05:56.273Z,15.20
2023-02-11T17:07:58.262Z,15.85
2023-02-11T17:10:00.434Z,15.23
2023-02-11T17:12:02.181Z,14.70
2023-02-11T17:14:03.788Z,13.52
2023-02-11T17:16:05.507Z,14.10
2023-02-11T17:18:06.962Z,14.82
2023-02-11T17:20:12.288Z,13.23
2023-02-11T17:22:13.903Z,13.50
2023-02-11T17:24:16.797Z,14.00
2023-02-11T17:26:21.375Z,14.13
2023-02-11T17:28:23.136Z,13.90
2023-02-11T17:30:27.847Z,14.90
2023-02-11T17:32:29.550Z,14.38
2023-02-11T17:34:32.358Z,14.13
2023-02-11T17:36:34.141Z,13.65
2023-02-11T17:38:37.252Z,14.65
2023-02-11T17:40:38.864Z,13.32
2023-02-11T17:42:40.501Z,14.10
2023-02-11T17:44:43.929Z,12.90
2023-02-11T17:46:45.748Z,12.60
2023-02-11T17:48:47.353Z,13.88
2023-02-11T17:50:49.230Z,13.93
2023-02-11T17:52:50.846Z,13.50
2023-02-11T17:54:52.617Z,14.48
2023-02-11T17:56:57.766Z,14.38
2023-02-11T17:59:02.268Z,16.67
2023-02-11T18:01:04.215Z,16.45
2023-02-11T18:03:05.777Z,17.33
2023-02-11T18:05:10.731Z,16.58
2023-02-11T18:07:12.424Z,16.85
2023-02-11T18:09:14.092Z,16.13
2023-02-11T18:11:16.464Z,17.08
2023-02-11T18:13:18.319Z,17.05
2023-02-11T18:15:20.103Z,16.95
2023-02-11T18:17:25.148Z,16.50
2023-02-11T18:19:30.550Z,16.65
2023-02-11T18:21:33.411Z,16.15
2023-02-11T18:23:35.417Z,15.20
2023-02-11T18:25:37.669Z,14.57
2023-02-11T18:27:39.497Z,14.68
2023-02-11T18:29:44.051Z,14.38
2023-02-11T18:31:45.727Z,13.15
2023-02-11T18:33:48.005Z,12.73
2023-02-11T18:35:52.840Z,12.15
2023-02-11T18:37:54.469Z,13.13
2023-02-11T18:39:56.153Z,12.90
2023-02-11T18:41:58.994Z,12.20
2023-02-11T18:44:02.875Z,12.82
2023-02-11T18:46:12.738Z,12.52
2023-02-11T18:48:21.917Z,12.68
2023-02-11T18:50:23.707Z,12.52
2023-02-11T18:52:25.343Z,13.77
2023-02-11T18:54:27.116Z,12.90
2023-02-11T18:56:28.924Z,13.40
2023-02-11T18:58:30.518Z,14.00
2023-02-11T19:00:32.366Z,16.05
2023-02-11T19:02:34.054Z,15.07
2023-02-11T19:04:38.529Z,15.27
2023-02-11T19:06:40.370Z,15.10
2023-02-11T19:08:42.361Z,14.38
2023-02-11T19:10:46.772Z,14.55
2023-02-11T19:12:48.590Z,13.13
2023-02-11T19:14:50.076Z,14.10
2023-02-11T19:16:54.802Z,12.80
2023-02-11T19:18:56.815Z,13.32
2023-02-11T19:21:01.856Z,12.95
2023-02-11T19:23:06.452Z,12.40
2023-02-11T19:25:08.247Z,12.98
2023-02-11T19:27:14.355Z,14.60
2023-02-11T19:29:16.832Z,13.38
2023-02-11T19:31:18.739Z,14.32
2023-02-11T19:33:20.462Z,13.57
2023-02-11T19:35:23.239Z,13.43
2023-02-11T19:37:24.976Z,14.43
2023-02-11T19:39:27.042Z,13.25
2023-02-11T19:41:29.638Z,12.05
2023-02-11T19:43:31.303Z,13.18
2023-02-11T19:45:33.092Z,12.70
2023-02-11T19:47:35.103Z,13.15
2023-02-11T19:49:36.833Z,12.75
2023-02-11T19:51:39.680Z,11.07
2023-02-11T19:53:42.346Z,11.93
2023-02-11T19:55:44.291Z,12.90
2023-02-11T19:57:45.856Z,12.75
2023-02-11T19:59:47.411Z,12.60
2023-02-11T20:01:49.255Z,12.90
2023-02-11T20:03:55.310Z,12.65
2023-02-11T20:05:57.082Z,11.95
2023-02-11T20:07:58.801Z,13.43
2023-02-11T20:10:00.561Z,13.07
2023-02-11T20:12:02.143Z,13.48
2023-02-11T20:14:05.118Z,14.05
2023-02-11T20:16:13.237Z,14.55
2023-02-11T20:18:14.915Z,15.48
2023-02-11T20:20:18.567Z,15.38
2023-02-11T20:22:20.185Z,15.70
2023-02-11T20:24:23.107Z,15.95
2023-02-11T20:26:31.016Z,14.63
2023-02-11T20:28:32.991Z,15.98
2023-02-11T20:30:34.648Z,14.75
2023-02-11T20:32:38.587Z,15.27
2023-02-11T20:34:40.382Z,15.77
2023-02-11T20:36:42.089Z,14.90
2023-02-11T20:38:44.712Z,15.05
2023-02-11T20:40:47.659Z,15.00
2023-02-11T20:42:49.900Z,15.43
2023-02-11T20:44:51.678Z,14.57
2023-02-11T20:46:54.338Z,15.15
2023-02-11T20:48:57.551Z,14.80
2023-02-11T20:51:06.716Z,15.48
2023-02-11T20:53:10.254Z,15.18
2023-02-11T20:55:14.646Z,16.40
2023-02-11T20:57:17.486Z,16.23
2023-02-11T20:59:21.207Z,16.73
2023-02-11T21:01:27.501Z,15.35
2023-02-11T21:03:29.371Z,16.48
2023-02-11T21:05:31.274Z,15.90
2023-02-11T21:07:33.094Z,16.23
2023-02-11T21:09:34.754Z,16.85
2023-02-11T21:11:39.583Z,16.58
2023-02-11T21:13:42.842Z,17.67
2023-02-11T21:15:44.459Z,17.05
2023-02-11T21:17:46.331Z,16.13
2023-02-11T21:19:47.878Z,18.15
2023-02-11T21:21:49.799Z,18.27
2023-02-11T21:23:51.269Z,16.80
2023-02-11T21:25:54.114Z,15.70
2023-02-11T21:27:56.058Z,17.40
2023-02-11T21:30:00.229Z,17.55
2023-02-11T21:32:01.971Z,16.13
2023-02-11T21:34:04.124Z,15.77
2023-02-11T21:36:07.934Z,15.82
2023-02-11T21:38:09.932Z,15.80
2023-02-11T21:40:11.787Z,16.75
2023-02-11T21:42:13.375Z,17.02
2023-02-11T21:44:14.944Z,17.23
2023-02-11T21:46:19.064Z,17.30
2023-02-11T21:48:21.033Z,16.45
2023-02-11T21:50:23.897Z,17.20
2023-02-11T21:52:25.655Z,16.65
2023-02-11T21:54:31.951Z,17.17
2023-02-11T21:56:36.734Z,16.95
2023-02-11T21:58:38.893Z,16.30
2023-02-11T22:00:40.555Z,16.08
2023-02-11T22:02:42.456Z,15.27
2023-02-11T22:04:44.133Z,16.90
2023-02-11T22:06:48.116Z,15.88
2023-02-11T22:08:50.263Z,14.77
2023-02-11T22:10:52.142Z,15.18
2023-02-11T22:12:53.829Z,15.05
2023-02-11T22:14:55.826Z,16.42
2023-02-11T22:16:57.495Z,14.98
2023-02-11T22:18:59.658Z,16.00
2023-02-11T22:21:10.511Z,16.13
2023-02-11T22:23:12.153Z,15.73
2023-02-11T22:25:13.812Z,15.48
2023-02-11T22:27:19.880Z,15.85
2023-02-11T22:29:21.774Z,15.35
2023-02-11T22:31:29.810Z,15.40
2023-02-11T22:33:31.548Z,15.43
2023-02-11T22:35:34.618Z,14.70
2023-02-11T22:37:42.294Z,15.57
2023-02-11T22:39:43.840Z,16.67
2023-02-11T22:41:46.858Z,15.00
2023-02-11T22:43:48.532Z,16.10
2023-02-11T22:45:50.791Z,14.80
2023-02-11T22:47:54.189Z,15.30
2023-02-11T22:49:55.872Z,14.75
2023-02-11T22:51:57.486Z,16.45
2023-02-11T22:54:04.956Z,15.80
2023-02-11T22:56:09.865Z,15.30
2023-02-11T22:58:11.518Z,15.30
2023-02-11T23:00:13.818Z,15.30
2023-02-11T23:02:15.647Z,15.30
2023-02-11T23:04:19.453Z,14.52
2023-02-11T23:06:21.245Z,16.27
2023-02-11T23:08:23.100Z,15.75
2023-02-11T23:10:24.720Z,16.10
2023-02-11T23:12:26.976Z,16.95
2023-02-11T23:14:28.658Z,15.40
2023-02-11T23:16:33.422Z,16.00
2023-02-11T23:18:37.127Z,15.43
2023-02-11T23:20:42.258Z,15.32
2023-02-11T23:22:44.036Z,14.98
2023-02-11T23:24:45.858Z,15.15
2023-02-11T23:26:47.425Z,17.08
2023-02-11T23:28:49.540Z,15.93
2023-02-11T23:30:54.756Z,16.48
2023-02-11T23:32:56.335Z,14.70
2023-02-11T23:34:58.281Z,16.15
2023-02-11T23:36:59.848Z,16.70
2023-02-11T23:39:01.554Z,16.70
2023-02-11T23:41:06.247Z,17.15
2023-02-11T23:43:07.790Z,17.17
2023-02-11T23:45:09.873Z,17.45
2023-02-11T23:47:11.523Z,16.92
2023-02-11T23:49:15.592Z,17.30
2023-02-11T23:51:17.462Z,17.08
2023-02-11T23:53:19.101Z,15.32
2023-02-11T23:55:20.723Z,14.75
2023-02-11T23:57:22.211Z,14.35
2023-02-11T23:59:23.802Z,14.82
